CEF2 weather

Belwood (Ellen Field)
Ontario, Canada

Public forecast

Using degrees Celsius for public forecast. Weather courtesy of forecast.io.

Closest aviation weather report (METAR) to Belwood (Ellen Field)

Closest report is Waterloo Airport, 22.6 nm (41.9 km) S. Retrieved 2020/08/07 14:00 UTC (31 minutes ago):

CYKF 071400Z AUTO 03003KT 350V070 9SM CLR 21/14 A3018 RMK SLP220 DENSITY ALT 1600FT

Closest aviation forecast (TAF) to Belwood (Ellen Field)

Closest forecast is Waterloo Airport, 22.6 nm (41.9 km) S. Retrieved 2020/08/07 14:42 UTC (0 seconds ago):

TAF CYKF 071339Z 0714/0802 09006KT P6SM SKC BECMG 0714/0716 SCT060 FM080000 VRB03KT P6SM FEW060 RMK FCST BASED ON AUTO OBS NXT FCST BY 072000Z